createdAt,value
2023-02-23T00:03:41.517Z,9.95
2023-02-23T00:08:44.493Z,10.63
2023-02-23T00:13:50.614Z,12.43
2023-02-23T00:18:54.968Z,10.80
2023-02-23T00:23:59.608Z,10.93
2023-02-23T00:29:05.989Z,11.75
2023-02-23T00:34:08.738Z,11.82
2023-02-23T00:39:19.136Z,12.20
2023-02-23T00:44:24.665Z,11.88
2023-02-23T00:49:27.635Z,13.43
2023-02-23T00:54:30.679Z,13.68
2023-02-23T00:59:34.773Z,13.38
2023-02-23T01:04:37.562Z,16.33
2023-02-23T01:09:40.267Z,16.73
2023-02-23T01:14:44.365Z,15.02
2023-02-23T01:19:47.097Z,18.90
2023-02-23T01:24:49.838Z,17.05
2023-02-23T01:29:55.074Z,16.42
2023-02-23T01:34:57.808Z,16.45
2023-02-23T01:40:00.582Z,16.38
2023-02-23T01:45:30.173Z,18.08
2023-02-23T01:50:39.793Z,15.65
2023-02-23T01:55:43.074Z,17.30
2023-02-23T02:00:50.468Z,18.25
2023-02-23T02:05:53.528Z,16.98
2023-02-23T02:11:00.608Z,15.27
2023-02-23T02:16:33.907Z,14.20
2023-02-23T02:21:53.919Z,17.95
2023-02-23T02:27:05.103Z,14.95
2023-02-23T02:32:33.131Z,15.45
2023-02-23T02:37:56.784Z,19.38
2023-02-23T02:43:10.094Z,16.30
2023-02-23T02:48:19.014Z,14.30
2023-02-23T02:53:29.559Z,14.35
2023-02-23T02:58:33.557Z,14.55
2023-02-23T03:03:55.939Z,14.65
2023-02-23T03:09:24.359Z,13.27
2023-02-23T03:14:50.387Z,14.45
2023-02-23T03:20:15.100Z,15.98
2023-02-23T03:25:39.908Z,14.27
2023-02-23T03:31:07.447Z,16.25
2023-02-23T03:36:31.864Z,15.98
2023-02-23T03:41:55.642Z,16.15
2023-02-23T03:47:17.614Z,15.65
2023-02-23T03:52:40.042Z,13.32
2023-02-23T03:58:02.568Z,13.95
2023-02-23T04:03:24.299Z,15.18
2023-02-23T04:08:48.226Z,14.00
2023-02-23T04:13:54.890Z,15.23
2023-02-23T04:18:57.816Z,14.52
2023-02-23T04:24:00.706Z,15.52
2023-02-23T04:29:04.851Z,16.00
2023-02-23T04:34:07.783Z,14.35
2023-02-23T04:39:10.498Z,12.80
2023-02-23T04:44:14.669Z,13.68
2023-02-23T04:49:17.550Z,14.60
2023-02-23T04:54:20.264Z,13.68
2023-02-23T04:59:24.370Z,14.73
2023-02-23T05:04:27.449Z,13.10
2023-02-23T05:09:30.352Z,15.15
2023-02-23T05:14:34.511Z,12.63
2023-02-23T05:19:37.670Z,11.07
2023-02-23T05:24:40.378Z,10.77
2023-02-23T05:29:44.510Z,11.85
2023-02-23T05:34:47.220Z,13.68
2023-02-23T05:39:50.116Z,14.77
2023-02-23T05:44:54.651Z,13.63
2023-02-23T05:49:57.348Z,13.60
2023-02-23T05:55:00.227Z,13.38
2023-02-23T06:00:05.871Z,13.50
2023-02-23T06:05:10.152Z,11.63
2023-02-23T06:10:13.282Z,14.05
2023-02-23T06:15:18.228Z,12.40
2023-02-23T06:20:20.941Z,11.50
2023-02-23T06:25:23.648Z,12.20
2023-02-23T06:30:27.812Z,10.90
2023-02-23T06:35:30.538Z,14.63
2023-02-23T06:40:33.669Z,11.95
2023-02-23T06:45:37.769Z,11.32
2023-02-23T06:50:40.561Z,9.93
2023-02-23T06:55:43.256Z,11.73
2023-02-23T07:00:47.608Z,10.93
2023-02-23T07:05:50.905Z,11.85
2023-02-23T07:10:53.655Z,12.18
2023-02-23T07:15:59.213Z,14.30
2023-02-23T07:21:02.003Z,10.07
2023-02-23T07:26:04.927Z,12.55
2023-02-23T07:31:09.024Z,14.60
2023-02-23T07:36:12.079Z,10.52
2023-02-23T07:41:14.901Z,10.45
2023-02-23T07:46:19.000Z,10.02
2023-02-23T07:51:21.996Z,10.50
2023-02-23T07:56:24.730Z,12.07
2023-02-23T08:01:28.808Z,11.20
2023-02-23T08:06:31.643Z,10.18
2023-02-23T08:11:34.516Z,11.27
2023-02-23T08:16:38.636Z,12.10
2023-02-23T08:21:43.285Z,11.65
2023-02-23T08:26:46.006Z,17.27
2023-02-23T08:31:51.511Z,13.55
2023-02-23T08:36:54.423Z,10.32
2023-02-23T08:41:57.466Z,10.80
2023-02-23T08:47:04.487Z,10.32
2023-02-23T08:52:07.222Z,14.13
2023-02-23T08:57:12.478Z,15.27
2023-02-23T09:02:16.931Z,11.80
2023-02-23T09:07:19.654Z,13.73
2023-02-23T09:12:22.423Z,11.93
2023-02-23T09:17:26.604Z,14.98
2023-02-23T09:22:29.426Z,14.25
2023-02-23T09:27:32.130Z,16.40
2023-02-23T09:32:36.740Z,20.30
2023-02-23T09:37:39.530Z,15.23
2023-02-23T09:42:48.938Z,15.00
2023-02-23T09:48:02.997Z,15.85
2023-02-23T09:53:08.659Z,14.60
2023-02-23T09:58:20.951Z,10.65
2023-02-23T10:03:30.340Z,13.00
2023-02-23T10:08:50.134Z,15.43
2023-02-23T10:14:00.399Z,15.20
2023-02-23T10:19:13.991Z,16.60
2023-02-23T10:24:20.198Z,14.77
2023-02-23T10:29:27.991Z,18.48
2023-02-23T10:34:32.635Z,15.63
2023-02-23T10:39:35.398Z,18.13
2023-02-23T10:44:38.225Z,20.40
2023-02-23T10:49:45.619Z,18.60
2023-02-23T10:54:49.458Z,16.83
2023-02-23T11:00:16.000Z,18.55
2023-02-23T11:05:35.308Z,18.77
2023-02-23T11:10:38.428Z,20.95
2023-02-23T11:15:54.470Z,21.48
2023-02-23T11:20:58.942Z,22.60
2023-02-23T11:26:03.086Z,20.77
2023-02-23T11:31:14.286Z,23.05
2023-02-23T11:36:27.525Z,22.92
2023-02-23T11:41:31.703Z,23.33
2023-02-23T11:46:37.918Z,22.98
2023-02-23T11:51:43.067Z,23.13
2023-02-23T11:56:50.383Z,21.13
2023-02-23T12:01:54.879Z,26.67
2023-02-23T12:07:21.657Z,25.42
2023-02-23T12:12:25.396Z,24.38
2023-02-23T12:17:29.276Z,25.10
2023-02-23T12:22:35.956Z,24.05
2023-02-23T12:27:42.676Z,24.77
2023-02-23T12:32:47.775Z,24.63
2023-02-23T12:37:54.452Z,21.63
2023-02-23T12:43:03.069Z,25.50
2023-02-23T12:48:12.714Z,28.48
2023-02-23T12:53:22.126Z,25.33
2023-02-23T12:58:30.499Z,31.60
2023-02-23T13:04:15.078Z,26.42
2023-02-23T13:09:31.732Z,28.95
2023-02-23T13:14:43.072Z,29.15
2023-02-23T13:19:50.077Z,31.45
2023-02-23T13:24:55.427Z,27.98
2023-02-23T13:29:59.261Z,28.27
2023-02-23T13:35:03.529Z,30.67
2023-02-23T13:40:21.755Z,32.47
2023-02-23T13:45:37.593Z,33.28
2023-02-23T13:50:46.523Z,30.95
2023-02-23T13:55:51.668Z,33.10
2023-02-23T14:00:56.343Z,32.22
2023-02-23T14:06:01.656Z,33.38
2023-02-23T14:11:06.838Z,35.45
2023-02-23T14:16:16.093Z,36.45
2023-02-23T14:21:27.897Z,37.03
2023-02-23T14:26:43.661Z,34.90
2023-02-23T14:31:56.301Z,35.47
2023-02-23T14:37:06.433Z,30.42
2023-02-23T14:42:10.774Z,36.70
2023-02-23T14:47:15.494Z,36.35
2023-02-23T14:52:21.453Z,31.98
2023-02-23T14:57:27.121Z,34.05
2023-02-23T15:02:31.380Z,33.83
2023-02-23T15:07:38.074Z,33.17
2023-02-23T15:12:42.519Z,33.53
2023-02-23T15:17:48.068Z,32.10
2023-02-23T15:22:55.121Z,38.28
2023-02-23T15:27:59.371Z,37.78
2023-02-23T15:33:03.794Z,39.70
2023-02-23T15:38:14.227Z,39.70
2023-02-23T15:43:22.647Z,37.75
2023-02-23T15:48:28.357Z,39.70
2023-02-23T15:53:34.236Z,39.15
2023-02-23T15:58:56.173Z,38.95
2023-02-23T16:04:03.100Z,39.85
2023-02-23T16:09:21.790Z,38.78
2023-02-23T16:14:28.076Z,42.10
2023-02-23T16:19:31.801Z,43.15
2023-02-23T16:24:37.251Z,40.22
2023-02-23T16:29:42.728Z,42.85
2023-02-23T16:34:50.791Z,41.13
2023-02-23T16:39:54.074Z,41.92
2023-02-23T16:44:58.766Z,39.92
2023-02-23T16:50:13.679Z,41.17
2023-02-23T16:55:25.616Z,38.45
2023-02-23T17:00:31.992Z,39.50
2023-02-23T17:05:34.821Z,48.08
2023-02-23T17:10:37.675Z,43.38
2023-02-23T17:15:47.941Z,42.83
2023-02-23T17:20:51.151Z,42.72
2023-02-23T17:25:54.586Z,38.83
2023-02-23T17:30:58.735Z,39.25
2023-02-23T17:36:02.116Z,42.38
2023-02-23T17:41:06.670Z,41.22
2023-02-23T17:46:11.344Z,45.55
2023-02-23T17:51:16.651Z,43.63
2023-02-23T17:56:20.193Z,46.30
2023-02-23T18:01:24.669Z,47.75
2023-02-23T18:06:27.869Z,46.83
2023-02-23T18:11:30.646Z,50.72
2023-02-23T18:16:34.948Z,47.75
2023-02-23T18:21:40.784Z,45.95
2023-02-23T18:26:43.573Z,44.88
2023-02-23T18:31:49.723Z,43.22
2023-02-23T18:36:52.869Z,45.53
2023-02-23T18:41:55.693Z,46.60
2023-02-23T18:46:59.871Z,48.72
2023-02-23T18:52:02.683Z,44.17
2023-02-23T18:57:06.650Z,46.33
2023-02-23T19:02:12.153Z,50.72
2023-02-23T19:07:15.004Z,47.53
2023-02-23T19:12:17.900Z,47.80
2023-02-23T19:17:22.008Z,55.20
2023-02-23T19:22:24.853Z,54.15
2023-02-23T19:27:27.729Z,45.97
2023-02-23T19:32:31.990Z,40.45
2023-02-23T19:37:35.312Z,31.00
2023-02-23T19:42:42.971Z,35.10
2023-02-23T19:47:47.177Z,34.40
2023-02-23T19:52:50.814Z,29.70
2023-02-23T19:57:53.797Z,25.60
2023-02-23T20:03:01.150Z,25.65
2023-02-23T20:08:04.110Z,29.13
2023-02-23T20:13:07.494Z,30.65
2023-02-23T20:18:13.426Z,27.27
2023-02-23T20:23:16.167Z,24.90
2023-02-23T20:28:19.123Z,24.17
2023-02-23T20:33:23.488Z,23.13
2023-02-23T20:38:26.234Z,22.95
2023-02-23T20:43:29.048Z,22.52
2023-02-23T20:48:34.940Z,20.05
2023-02-23T20:53:37.750Z,19.27
2023-02-23T20:58:40.542Z,18.38
2023-02-23T21:03:44.935Z,20.75
2023-02-23T21:08:48.818Z,19.45
2023-02-23T21:13:52.094Z,17.65
2023-02-23T21:19:04.034Z,18.38
2023-02-23T21:24:07.062Z,17.25
2023-02-23T21:29:11.767Z,18.15
2023-02-23T21:34:19.671Z,20.00
2023-02-23T21:39:22.698Z,18.67
2023-02-23T21:44:26.029Z,19.60
2023-02-23T21:49:30.276Z,21.13
2023-02-23T21:54:36.966Z,22.48
2023-02-23T21:59:39.721Z,21.73
2023-02-23T22:04:46.814Z,19.10
2023-02-23T22:09:49.854Z,21.58
2023-02-23T22:14:52.717Z,15.95
2023-02-23T22:19:56.846Z,16.10
2023-02-23T22:24:59.578Z,13.50
2023-02-23T22:30:04.735Z,14.52
2023-02-23T22:35:09.827Z,14.13
2023-02-23T22:40:15.726Z,16.77
2023-02-23T22:45:19.174Z,16.75
2023-02-23T22:50:23.447Z,17.30
2023-02-23T22:55:27.892Z,22.05
2023-02-23T23:00:30.614Z,20.92
2023-02-23T23:05:35.558Z,18.48
2023-02-23T23:10:38.761Z,19.75
2023-02-23T23:15:42.830Z,18.90
2023-02-23T23:20:49.061Z,18.17
2023-02-23T23:25:51.963Z,14.35
2023-02-23T23:30:56.137Z,16.70
2023-02-23T23:36:01.955Z,16.02
2023-02-23T23:41:10.565Z,15.18
2023-02-23T23:46:14.841Z,16.85
2023-02-23T23:51:19.173Z,14.82
2023-02-23T23:56:22.327Z,17.48
